sensor_id;sensor_type;location;lat;lon;timestamp;pressure;altitude;pressure_sealevel;temperature;humidity
72961;BME280;61141;46.204;19.774;2023-05-15T00:01:31;99772.72;;;13.60;100.00
72961;BME280;61141;46.204;19.774;2023-05-15T00:04:34;99767.22;;;13.64;100.00
72961;BME280;61141;46.204;19.774;2023-05-15T00:07:37;99764.87;;;13.59;100.00
72961;BME280;61141;46.204;19.774;2023-05-15T00:10:40;99759.34;;;13.62;100.00
72961;BME280;61141;46.204;19.774;2023-05-15T00:14:01;99752.28;;;13.61;100.00
72961;BME280;61141;46.204;19.774;2023-05-15T00:17:04;99754.25;;;13.61;100.00
72961;BME280;61141;46.204;19.774;2023-05-15T00:20:07;99741.66;;;13.60;100.00
72961;BME280;61141;46.204;19.774;2023-05-15T00:23:11;99735.78;;;13.61;100.00
72961;BME280;61141;46.204;19.774;2023-05-15T00:26:13;99744.03;;;13.61;100.00
72961;BME280;61141;46.204;19.774;2023-05-15T00:29:17;99729.47;;;13.61;100.00
72961;BME280;61141;46.204;19.774;2023-05-15T00:32:20;99734.19;;;13.64;100.00
72961;BME280;61141;46.204;19.774;2023-05-15T00:35:23;99722.38;;;13.63;100.00
72961;BME280;61141;46.204;19.774;2023-05-15T00:38:26;99736.94;;;13.60;100.00
72961;BME280;61141;46.204;19.774;2023-05-15T00:41:29;99738.91;;;13.63;100.00
72961;BME280;61141;46.204;19.774;2023-05-15T00:44:37;99719.63;;;13.63;100.00
72961;BME280;61141;46.204;19.774;2023-05-15T00:47:42;99725.56;;;13.58;100.00
72961;BME280;61141;46.204;19.774;2023-05-15T00:50:45;99727.91;;;13.56;100.00
72961;BME280;61141;46.204;19.774;2023-05-15T00:53:50;99732.25;;;13.57;100.00
72961;BME280;61141;46.204;19.774;2023-05-15T00:56:58;99722.03;;;13.58;100.00
72961;BME280;61141;46.204;19.774;2023-05-15T01:00:02;99727.13;;;13.59;100.00
72961;BME280;61141;46.204;19.774;2023-05-15T01:03:12;99741.66;;;13.60;100.00
72961;BME280;61141;46.204;19.774;2023-05-15T01:06:15;99740.13;;;13.55;100.00
72961;BME280;61141;46.204;19.774;2023-05-15T01:09:18;99739.28;;;13.62;100.00
72961;BME280;61141;46.204;19.774;2023-05-15T01:12:24;99733.03;;;13.58;100.00
72961;BME280;61141;46.204;19.774;2023-05-15T01:15:28;99741.66;;;13.60;100.00
72961;BME280;61141;46.204;19.774;2023-05-15T01:18:31;99742.03;;;13.62;100.00
72961;BME280;61141;46.204;19.774;2023-05-15T01:28:11;99737.72;;;13.64;100.00
72961;BME280;61141;46.204;19.774;2023-05-15T01:31:18;99722.38;;;13.67;100.00
72961;BME280;61141;46.204;19.774;2023-05-15T01:34:31;99701.63;;;13.51;100.00
72961;BME280;61141;46.204;19.774;2023-05-15T01:37:39;99724.31;;;13.66;100.00
72961;BME280;61141;46.204;19.774;2023-05-15T01:40:47;99735.78;;;13.61;100.00
72961;BME280;61141;46.204;19.774;2023-05-15T01:43:55;99736.53;;;13.62;100.00
72961;BME280;61141;46.204;19.774;2023-05-15T01:47:21;99739.69;;;13.64;100.00
72961;BME280;61141;46.204;19.774;2023-05-15T01:50:26;99738.47;;;13.65;100.00
72961;BME280;61141;46.204;19.774;2023-05-15T01:53:31;99720.16;;;13.47;100.00
72961;BME280;61141;46.204;19.774;2023-05-15T01:56:36;99736.56;;;13.58;100.00
72961;BME280;61141;46.204;19.774;2023-05-15T01:59:39;99744.41;;;13.60;100.00
72961;BME280;61141;46.204;19.774;2023-05-15T02:02:44;99735.41;;;13.56;100.00
72961;BME280;61141;46.204;19.774;2023-05-15T02:05:48;99746.44;;;13.56;100.00
72961;BME280;61141;46.204;19.774;2023-05-15T02:08:57;99748.81;;;13.50;100.00
72961;BME280;61141;46.204;19.774;2023-05-15T02:12:01;99748.41;;;13.51;100.00
72961;BME280;61141;46.204;19.774;2023-05-15T02:15:06;99733.91;;;13.44;100.00
72961;BME280;61141;46.204;19.774;2023-05-15T02:18:10;99738.62;;;13.47;100.00
72961;BME280;61141;46.204;19.774;2023-05-15T02:21:14;99740.59;;;13.46;100.00
72961;BME280;61141;46.204;19.774;2023-05-15T02:24:17;99743.31;;;13.50;100.00
72961;BME280;61141;46.204;19.774;2023-05-15T02:30:54;99726.03;;;13.46;100.00
72961;BME280;61141;46.204;19.774;2023-05-15T02:34:25;99724.06;;;13.46;100.00
72961;BME280;61141;46.204;19.774;2023-05-15T02:37:34;99722.50;;;13.45;100.00
72961;BME280;61141;46.204;19.774;2023-05-15T02:40:40;99721.75;;;13.41;100.00
72961;BME280;61141;46.204;19.774;2023-05-15T02:43:46;99725.69;;;13.37;100.00
72961;BME280;61141;46.204;19.774;2023-05-15T02:46:52;99719.44;;;13.36;100.00
72961;BME280;61141;46.204;19.774;2023-05-15T02:49:56;99719.81;;;13.35;100.00
72961;BME280;61141;46.204;19.774;2023-05-15T02:53:03;99717.84;;;13.35;100.00
72961;BME280;61141;46.204;19.774;2023-05-15T02:56:06;99713.97;;;13.29;100.00
72961;BME280;61141;46.204;19.774;2023-05-15T02:59:10;99715.09;;;13.35;100.00
72961;BME280;61141;46.204;19.774;2023-05-15T03:02:12;99716.69;;;13.33;100.00
72961;BME280;61141;46.204;19.774;2023-05-15T03:05:15;99719.03;;;13.34;100.00
72961;BME280;61141;46.204;19.774;2023-05-15T03:08:18;99702.16;;;13.29;100.00
72961;BME280;61141;46.204;19.774;2023-05-15T03:11:21;99709.59;;;13.35;100.00
72961;BME280;61141;46.204;19.774;2023-05-15T03:14:23;99705.34;;;13.27;100.00
72961;BME280;61141;46.204;19.774;2023-05-15T03:17:26;99712.75;;;13.34;100.00
72961;BME280;61141;46.204;19.774;2023-05-15T03:20:29;99693.59;;;13.20;100.00
72961;BME280;61141;46.204;19.774;2023-05-15T03:23:32;99685.72;;;13.25;100.00
72961;BME280;61141;46.204;19.774;2023-05-15T03:26:38;99718.28;;;13.30;100.00
72961;BME280;61141;46.204;19.774;2023-05-15T03:29:42;99717.53;;;13.23;100.00
72961;BME280;61141;46.204;19.774;2023-05-15T03:32:45;99717.13;;;13.28;100.00
72961;BME280;61141;46.204;19.774;2023-05-15T03:35:48;99713.19;;;13.29;100.00
72961;BME280;61141;46.204;19.774;2023-05-15T03:38:52;99713.97;;;13.29;100.00
72961;BME280;61141;46.204;19.774;2023-05-15T03:41:55;99684.88;;;13.28;100.00
72961;BME280;61141;46.204;19.774;2023-05-15T03:44:58;99669.94;;;13.29;100.00
72961;BME280;61141;46.204;19.774;2023-05-15T03:48:01;99676.25;;;13.30;100.00
72961;BME280;61141;46.204;19.774;2023-05-15T03:51:04;99662.94;;;13.21;100.00
72961;BME280;61141;46.204;19.774;2023-05-15T03:54:07;99673.06;;;13.31;100.00
72961;BME280;61141;46.204;19.774;2023-05-15T03:57:10;99665.97;;;13.37;100.00
72961;BME280;61141;46.204;19.774;2023-05-15T04:00:13;99669.88;;;13.40;100.00
72961;BME280;61141;46.204;19.774;2023-05-15T04:03:16;99676.13;;;13.44;100.00
72961;BME280;61141;46.204;19.774;2023-05-15T04:06:20;99689.47;;;13.45;100.00
72961;BME280;61141;46.204;19.774;2023-05-15T04:09:24;99676.94;;;13.44;100.00
72961;BME280;61141;46.204;19.774;2023-05-15T04:12:28;99687.16;;;13.44;100.00
72961;BME280;61141;46.204;19.774;2023-05-15T04:15:31;99689.47;;;13.45;100.00
72961;BME280;61141;46.204;19.774;2023-05-15T04:18:34;99684.84;;;13.39;100.00
72961;BME280;61141;46.204;19.774;2023-05-15T04:21:36;99697.88;;;13.28;100.00
72961;BME280;61141;46.204;19.774;2023-05-15T04:24:39;99692.72;;;13.33;100.00
72961;BME280;61141;46.204;19.774;2023-05-15T04:27:43;99710.75;;;13.38;100.00
72961;BME280;61141;46.204;19.774;2023-05-15T04:30:46;99706.06;;;13.38;100.00
72961;BME280;61141;46.204;19.774;2023-05-15T04:33:49;99696.53;;;13.50;100.00
72961;BME280;61141;46.204;19.774;2023-05-15T04:36:53;99672.59;;;13.47;100.00
72961;BME280;61141;46.204;19.774;2023-05-15T04:39:56;99669.75;;;13.58;100.00
72961;BME280;61141;46.204;19.774;2023-05-15T04:42:59;99684.53;;;13.78;100.00
72961;BME280;61141;46.204;19.774;2023-05-15T04:46:02;99701.75;;;13.85;100.00
72961;BME280;61141;46.204;19.774;2023-05-15T04:49:05;99704.91;;;13.84;100.00
72961;BME280;61141;46.204;19.774;2023-05-15T04:52:08;99693.12;;;13.83;100.00
72961;BME280;61141;46.204;19.774;2023-05-15T04:55:11;99704.84;;;13.91;100.00
72961;BME280;61141;46.204;19.774;2023-05-15T04:58:13;99707.16;;;13.96;100.00
72961;BME280;61141;46.204;19.774;2023-05-15T05:01:16;99718.50;;;14.05;100.00
72961;BME280;61141;46.204;19.774;2023-05-15T05:04:19;99717.59;;;14.15;100.00
72961;BME280;61141;46.204;19.774;2023-05-15T05:07:22;99710.38;;;14.28;100.00
72961;BME280;61141;46.204;19.774;2023-05-15T05:10:25;99708.31;;;14.39;100.00
72961;BME280;61141;46.204;19.774;2023-05-15T05:13:28;99702.28;;;14.51;100.00
72961;BME280;61141;46.204;19.774;2023-05-15T05:16:30;99719.97;;;14.54;100.00
72961;BME280;61141;46.204;19.774;2023-05-15T05:19:33;99720.75;;;14.54;100.00
72961;BME280;61141;46.204;19.774;2023-05-15T05:22:36;99719.13;;;14.60;100.00
72961;BME280;61141;46.204;19.774;2023-05-15T05:25:39;99722.25;;;14.62;100.00
72961;BME280;61141;46.204;19.774;2023-05-15T05:28:42;99699.88;;;14.57;100.00
72961;BME280;61141;46.204;19.774;2023-05-15T05:31:45;99685.59;;;14.65;100.00
72961;BME280;61141;46.204;19.774;2023-05-15T05:34:48;99693.75;;;14.73;100.00
72961;BME280;61141;46.204;19.774;2023-05-15T05:37:51;99692.97;;;14.72;100.00
72961;BME280;61141;46.204;19.774;2023-05-15T05:40:54;99700.91;;;14.66;100.00
72961;BME280;61141;46.204;19.774;2023-05-15T05:43:57;99711.37;;;14.82;100.00
72961;BME280;61141;46.204;19.774;2023-05-15T05:46:59;99717.09;;;14.95;100.00
72961;BME280;61141;46.204;19.774;2023-05-15T05:50:03;99727.41;;;14.91;100.00
72961;BME280;61141;46.204;19.774;2023-05-15T05:53:05;99736.25;;;14.75;100.00
72961;BME280;61141;46.204;19.774;2023-05-15T05:56:08;99724.84;;;14.77;100.00
72961;BME280;61141;46.204;19.774;2023-05-15T05:59:11;99729.22;;;14.70;100.00
72961;BME280;61141;46.204;19.774;2023-05-15T06:02:15;99737.88;;;14.73;100.00
72961;BME280;61141;46.204;19.774;2023-05-15T06:05:18;99749.72;;;14.69;100.00
72961;BME280;61141;46.204;19.774;2023-05-15T06:08:21;99761.50;;;14.74;100.00
72961;BME280;61141;46.204;19.774;2023-05-15T06:11:24;99763.84;;;14.75;100.00
72961;BME280;61141;46.204;19.774;2023-05-15T06:14:27;99765.59;;;14.58;100.00
72961;BME280;61141;46.204;19.774;2023-05-15T06:17:30;99774.75;;;14.86;100.00
72961;BME280;61141;46.204;19.774;2023-05-15T06:20:33;99774.47;;;14.77;100.00
72961;BME280;61141;46.204;19.774;2023-05-15T06:23:36;99772.87;;;14.79;100.00
72961;BME280;61141;46.204;19.774;2023-05-15T06:26:38;99779.44;;;14.89;100.00
72961;BME280;61141;46.204;19.774;2023-05-15T06:29:42;99782.09;;;14.99;100.00
72961;BME280;61141;46.204;19.774;2023-05-15T06:32:44;99784.78;;;15.03;100.00
72961;BME280;61141;46.204;19.774;2023-05-15T06:35:47;99793.81;;;15.07;100.00
72961;BME280;61141;46.204;19.774;2023-05-15T06:38:50;99792.16;;;15.13;100.00
72961;BME280;61141;46.204;19.774;2023-05-15T06:41:53;99792.16;;;15.13;100.00
72961;BME280;61141;46.204;19.774;2023-05-15T06:45:00;99801.25;;;15.10;100.00
72961;BME280;61141;46.204;19.774;2023-05-15T06:48:03;99792.59;;;15.08;100.00
72961;BME280;61141;46.204;19.774;2023-05-15T06:51:06;99791.75;;;15.14;100.00
72961;BME280;61141;46.204;19.774;2023-05-15T06:54:09;99790.50;;;15.19;100.00
72961;BME280;61141;46.204;19.774;2023-05-15T06:57:12;99796.28;;;15.28;100.00
72961;BME280;61141;46.204;19.774;2023-05-15T07:00:15;99794.28;;;15.32;100.00
72961;BME280;61141;46.204;19.774;2023-05-15T07:03:18;99794.59;;;15.38;100.00
72961;BME280;61141;46.204;19.774;2023-05-15T07:06:21;99792.91;;;15.47;100.00
72961;BME280;61141;46.204;19.774;2023-05-15T07:09:24;99800.34;;;15.50;100.00
72961;BME280;61141;46.204;19.774;2023-05-15T07:12:27;99795.50;;;15.58;100.00
72961;BME280;61141;46.204;19.774;2023-05-15T07:15:30;99796.28;;;15.58;100.00
72961;BME280;61141;46.204;19.774;2023-05-15T07:18:33;99799.81;;;15.62;100.00
72961;BME280;61141;46.204;19.774;2023-05-15T07:21:36;99786.34;;;15.64;100.00
72961;BME280;61141;46.204;19.774;2023-05-15T07:24:38;99786.72;;;15.66;100.00
72961;BME280;61141;46.204;19.774;2023-05-15T07:27:42;99795.47;;;15.61;100.00
72961;BME280;61141;46.204;19.774;2023-05-15T07:30:45;99810.84;;;15.62;100.00
72961;BME280;61141;46.204;19.774;2023-05-15T07:33:47;99794.13;;;15.73;100.00
72961;BME280;61141;46.204;19.774;2023-05-15T07:36:50;99811.41;;;15.77;100.00
72961;BME280;61141;46.204;19.774;2023-05-15T07:39:53;99818.09;;;15.79;100.00
72961;BME280;61141;46.204;19.774;2023-05-15T07:42:58;99830.84;;;15.70;100.00
72961;BME280;61141;46.204;19.774;2023-05-15T07:46:00;99819.34;;;15.75;100.00
72961;BME280;61141;46.204;19.774;2023-05-15T07:49:04;99808.31;;;15.71;100.00
72961;BME280;61141;46.204;19.774;2023-05-15T07:52:06;99816.88;;;15.80;100.00
72961;BME280;61141;46.204;19.774;2023-05-15T07:55:09;99816.06;;;15.83;100.00
72961;BME280;61141;46.204;19.774;2023-05-15T07:58:12;99818.66;;;15.94;100.00
72961;BME280;61141;46.204;19.774;2023-05-15T08:01:16;99813.06;;;15.98;100.00
72961;BME280;61141;46.204;19.774;2023-05-15T08:04:19;99820.06;;;16.06;100.00
72961;BME280;61141;46.204;19.774;2023-05-15T08:07:21;99815.97;;;16.14;100.00
72961;BME280;61141;46.204;19.774;2023-05-15T08:10:25;99814.00;;;16.37;100.00
72961;BME280;61141;46.204;19.774;2023-05-15T08:13:27;99812.78;;;16.38;100.00
72961;BME280;61141;46.204;19.774;2023-05-15T08:16:30;99811.59;;;16.39;100.00
72961;BME280;61141;46.204;19.774;2023-05-15T08:19:33;99806.72;;;16.47;100.00
72961;BME280;61141;46.204;19.774;2023-05-15T08:22:36;99824.41;;;16.53;100.00
72961;BME280;61141;46.204;19.774;2023-05-15T08:25:39;99822.06;;;16.28;100.00
72961;BME280;61141;46.204;19.774;2023-05-15T08:28:42;99833.06;;;16.32;100.00
72961;BME280;61141;46.204;19.774;2023-05-15T08:31:45;99847.72;;;16.29;100.00
72961;BME280;61141;46.204;19.774;2023-05-15T08:34:48;99850.00;;;16.34;100.00
72961;BME280;61141;46.204;19.774;2023-05-15T08:37:50;99841.81;;;16.27;100.00
72961;BME280;61141;46.204;19.774;2023-05-15T08:40:57;99841.34;;;16.32;100.00
72961;BME280;61141;46.204;19.774;2023-05-15T08:44:04;99844.78;;;16.39;100.00
72961;BME280;61141;46.204;19.774;2023-05-15T08:47:07;99838.69;;;16.48;100.00
72961;BME280;61141;46.204;19.774;2023-05-15T08:50:15;99847.84;;;16.68;100.00
72961;BME280;61141;46.204;19.774;2023-05-15T08:53:18;99837.25;;;16.86;100.00
72961;BME280;61141;46.204;19.774;2023-05-15T08:56:22;99837.19;;;16.90;100.00
72961;BME280;61141;46.204;19.774;2023-05-15T08:59:25;99836.69;;;16.95;100.00
72961;BME280;61141;46.204;19.774;2023-05-15T09:02:28;99826.41;;;16.95;100.00
72961;BME280;61141;46.204;19.774;2023-05-15T09:05:31;99829.03;;;17.02;100.00
72961;BME280;61141;46.204;19.774;2023-05-15T09:08:34;99833.56;;;17.13;100.00
72961;BME280;61141;46.204;19.774;2023-05-15T09:11:43;99834.72;;;16.95;100.00
72961;BME280;61141;46.204;19.774;2023-05-15T09:14:46;99836.31;;;17.13;100.00
72961;BME280;61141;46.204;19.774;2023-05-15T09:17:50;99843.94;;;17.28;100.00
72961;BME280;61141;46.204;19.774;2023-05-15T09:20:53;99848.97;;;17.14;98.65
72961;BME280;61141;46.204;19.774;2023-05-15T09:24:20;99849.75;;;16.94;99.46
72961;BME280;61141;46.204;19.774;2023-05-15T09:27:25;99859.19;;;17.17;100.00
72961;BME280;61141;46.204;19.774;2023-05-15T09:30:28;99856.69;;;17.02;100.00
72961;BME280;61141;46.204;19.774;2023-05-15T09:33:37;99853.41;;;16.88;100.00
72961;BME280;61141;46.204;19.774;2023-05-15T09:36:43;99877.19;;;16.85;100.00
72961;BME280;61141;46.204;19.774;2023-05-15T09:39:46;99877.66;;;16.80;100.00
72961;BME280;61141;46.204;19.774;2023-05-15T09:42:52;99884.28;;;16.86;100.00
72961;BME280;61141;46.204;19.774;2023-05-15T09:45:55;99882.22;;;16.90;100.00
72961;BME280;61141;46.204;19.774;2023-05-15T09:48:58;99881.16;;;17.04;100.00
72961;BME280;61141;46.204;19.774;2023-05-15T09:52:01;99876.12;;;16.99;100.00
72961;BME280;61141;46.204;19.774;2023-05-15T09:55:05;99882.81;;;17.01;100.00
72961;BME280;61141;46.204;19.774;2023-05-15T09:58:11;99886.66;;;17.08;100.00
72961;BME280;61141;46.204;19.774;2023-05-15T10:01:18;99887.22;;;17.19;100.00
72961;BME280;61141;46.204;19.774;2023-05-15T10:04:22;99881.56;;;17.26;100.00
72961;BME280;61141;46.204;19.774;2023-05-15T10:07:33;99892.88;;;17.54;100.00
72961;BME280;61141;46.204;19.774;2023-05-15T10:10:36;99891.56;;;17.39;98.85
72961;BME280;61141;46.204;19.774;2023-05-15T10:13:39;99881.00;;;17.54;98.97
72961;BME280;61141;46.204;19.774;2023-05-15T10:16:42;99895.53;;;17.38;99.76
72961;BME280;61141;46.204;19.774;2023-05-15T10:19:48;99879.66;;;17.23;100.00
72961;BME280;61141;46.204;19.774;2023-05-15T10:22:59;99889.72;;;17.33;100.00
72961;BME280;61141;46.204;19.774;2023-05-15T10:26:13;99888.53;;;17.34;99.97
72961;BME280;61141;46.204;19.774;2023-05-15T10:29:18;99883.84;;;17.31;100.00
72961;BME280;61141;46.204;19.774;2023-05-15T10:32:23;99886.03;;;17.39;100.00
72961;BME280;61141;46.204;19.774;2023-05-15T10:35:28;99869.56;;;17.32;99.37
72961;BME280;61141;46.204;19.774;2023-05-15T10:38:31;99869.13;;;17.14;98.43
72961;BME280;61141;46.204;19.774;2023-05-15T10:41:36;99862.03;;;17.33;97.85
72961;BME280;61141;46.204;19.774;2023-05-15T10:44:39;99865.03;;;17.42;98.84
72961;BME280;61141;46.204;19.774;2023-05-15T10:47:50;99864.63;;;17.40;98.97
72961;BME280;61141;46.204;19.774;2023-05-15T10:50:53;99867.91;;;17.35;96.11
72961;BME280;61141;46.204;19.774;2023-05-15T10:53:59;99872.81;;;17.27;97.14
72961;BME280;61141;46.204;19.774;2023-05-15T10:57:03;99882.69;;;17.28;97.77
72961;BME280;61141;46.204;19.774;2023-05-15T11:03:36;99887.50;;;17.04;98.47
72961;BME280;61141;46.204;19.774;2023-05-15T11:07:10;99890.56;;;17.10;100.00
72961;BME280;61141;46.204;19.774;2023-05-15T11:17:11;99883.47;;;16.39;100.00
72961;BME280;61141;46.204;19.774;2023-05-15T11:20:14;99889.28;;;16.22;100.00
72961;BME280;61141;46.204;19.774;2023-05-15T11:23:20;99893.06;;;16.05;100.00
72961;BME280;61141;46.204;19.774;2023-05-15T11:26:32;99896.28;;;16.03;100.00
72961;BME280;61141;46.204;19.774;2023-05-15T11:29:34;99902.66;;;15.97;100.00
72961;BME280;61141;46.204;19.774;2023-05-15T11:35:46;99897.31;;;16.13;100.00
72961;BME280;61141;46.204;19.774;2023-05-15T11:38:51;99894.44;;;16.20;100.00
72961;BME280;61141;46.204;19.774;2023-05-15T11:41:54;99889.72;;;16.20;100.00
72961;BME280;61141;46.204;19.774;2023-05-15T11:44:58;99888.09;;;16.23;100.00
72961;BME280;61141;46.204;19.774;2023-05-15T11:48:02;99889.91;;;16.33;100.00
72961;BME280;61141;46.204;19.774;2023-05-15T11:54:23;99890.38;;;16.28;100.00
72961;BME280;61141;46.204;19.774;2023-05-15T11:57:27;99884.84;;;16.28;100.00
72961;BME280;61141;46.204;19.774;2023-05-15T12:00:30;99883.66;;;16.29;100.00
72961;BME280;61141;46.204;19.774;2023-05-15T12:03:34;99872.13;;;16.34;100.00
72961;BME280;61141;46.204;19.774;2023-05-15T12:06:40;99861.91;;;16.31;100.00
72961;BME280;61141;46.204;19.774;2023-05-15T12:09:51;99872.16;;;16.30;100.00
72961;BME280;61141;46.204;19.774;2023-05-15T12:12:55;99871.06;;;16.24;100.00
72961;BME280;61141;46.204;19.774;2023-05-15T12:16:01;99864.19;;;16.36;100.00
72961;BME280;61141;46.204;19.774;2023-05-15T12:19:05;99871.94;;;16.44;100.00
72961;BME280;61141;46.204;19.774;2023-05-15T12:22:08;99867.47;;;16.54;100.00
72961;BME280;61141;46.204;19.774;2023-05-15T12:25:13;99866.25;;;16.55;100.00
72961;BME280;61141;46.204;19.774;2023-05-15T12:28:16;99867.19;;;16.68;100.00
72961;BME280;61141;46.204;19.774;2023-05-15T12:31:19;99865.38;;;16.62;100.00
72961;BME280;61141;46.204;19.774;2023-05-15T12:34:23;99850.84;;;16.31;100.00
72961;BME280;61141;46.204;19.774;2023-05-15T12:37:26;99851.91;;;16.14;100.00
72961;BME280;61141;46.204;19.774;2023-05-15T12:40:32;99844.53;;;16.30;99.21
72961;BME280;61141;46.204;19.774;2023-05-15T12:43:36;99825.37;;;16.43;97.21
72961;BME280;61141;46.204;19.774;2023-05-15T12:46:39;99815.69;;;16.55;96.33
72961;BME280;61141;46.204;19.774;2023-05-15T12:49:42;99826.13;;;16.43;97.85
72961;BME280;61141;46.204;19.774;2023-05-15T12:52:49;99818.75;;;16.60;98.24
72961;BME280;61141;46.204;19.774;2023-05-15T12:55:52;99819.59;;;16.34;99.42
72961;BME280;61141;46.204;19.774;2023-05-15T12:58:55;99819.75;;;16.46;97.75
72961;BME280;61141;46.204;19.774;2023-05-15T13:01:59;99812.59;;;16.49;98.08
72961;BME280;61141;46.204;19.774;2023-05-15T13:05:03;99811.84;;;16.49;95.99
72961;BME280;61141;46.204;19.774;2023-05-15T13:08:06;99819.06;;;16.42;98.17
72961;BME280;61141;46.204;19.774;2023-05-15T13:11:12;99813.38;;;16.53;97.80
72961;BME280;61141;46.204;19.774;2023-05-15T13:14:16;99806.19;;;16.56;96.40
72961;BME280;61141;46.204;19.774;2023-05-15T13:17:20;99807.06;;;16.49;98.87
72961;BME280;61141;46.204;19.774;2023-05-15T13:20:23;99802.75;;;16.48;98.26
72961;BME280;61141;46.204;19.774;2023-05-15T13:23:27;99793.88;;;16.37;99.23
72961;BME280;61141;46.204;19.774;2023-05-15T13:26:29;99791.09;;;16.37;98.23
72961;BME280;61141;46.204;19.774;2023-05-15T13:29:32;99780.87;;;16.34;96.97
72961;BME280;61141;46.204;19.774;2023-05-15T13:32:35;99779.13;;;16.43;97.27
72961;BME280;61141;46.204;19.774;2023-05-15T13:35:39;99786.66;;;16.43;98.49
72961;BME280;61141;46.204;19.774;2023-05-15T13:38:42;99794.47;;;16.48;98.96
72961;BME280;61141;46.204;19.774;2023-05-15T13:41:45;99794.09;;;16.69;95.82
72961;BME280;61141;46.204;19.774;2023-05-15T13:44:48;99799.03;;;16.58;96.62
72961;BME280;61141;46.204;19.774;2023-05-15T13:47:51;99808.00;;;16.42;97.95
72961;BME280;61141;46.204;19.774;2023-05-15T13:50:54;99806.19;;;16.56;98.41
72961;BME280;61141;46.204;19.774;2023-05-15T13:53:57;99812.03;;;16.61;98.19
72961;BME280;61141;46.204;19.774;2023-05-15T13:57:01;99808.38;;;16.68;100.00
72961;BME280;61141;46.204;19.774;2023-05-15T14:00:08;99785.16;;;16.38;100.00
72961;BME280;61141;46.204;19.774;2023-05-15T14:03:15;99796.16;;;16.42;100.00
72961;BME280;61141;46.204;19.774;2023-05-15T14:06:18;99812.75;;;16.42;100.00
72961;BME280;61141;46.204;19.774;2023-05-15T14:09:20;99802.34;;;16.26;100.00
72961;BME280;61141;46.204;19.774;2023-05-15T14:12:23;99812.75;;;16.42;100.00
72961;BME280;61141;46.204;19.774;2023-05-15T14:15:27;99812.59;;;16.49;100.00
72961;BME280;61141;46.204;19.774;2023-05-15T14:18:30;99816.69;;;16.41;100.00
72961;BME280;61141;46.204;19.774;2023-05-15T14:21:34;99818.87;;;16.53;100.00
72961;BME280;61141;46.204;19.774;2023-05-15T14:24:36;99823.44;;;16.63;100.00
72961;BME280;61141;46.204;19.774;2023-05-15T14:27:39;99835.78;;;16.59;100.00
72961;BME280;61141;46.204;19.774;2023-05-15T14:30:42;99839.03;;;16.54;100.00
72961;BME280;61141;46.204;19.774;2023-05-15T14:33:45;99836.28;;;16.54;100.00
72961;BME280;61141;46.204;19.774;2023-05-15T14:36:48;99834.97;;;16.35;100.00
72961;BME280;61141;46.204;19.774;2023-05-15T14:39:51;99834.47;;;16.17;100.00
72961;BME280;61141;46.204;19.774;2023-05-15T14:42:54;99836.31;;;16.00;100.00
72961;BME280;61141;46.204;19.774;2023-05-15T14:45:57;99834.16;;;16.11;100.00
72961;BME280;61141;46.204;19.774;2023-05-15T14:49:00;99839.75;;;16.08;100.00
72961;BME280;61141;46.204;19.774;2023-05-15T14:52:05;99840.66;;;16.01;100.00
72961;BME280;61141;46.204;19.774;2023-05-15T14:55:08;99845.72;;;16.06;100.00
72961;BME280;61141;46.204;19.774;2023-05-15T14:58:12;99844.22;;;16.02;100.00
72961;BME280;61141;46.204;19.774;2023-05-15T15:01:18;99848.47;;;16.06;100.00
72961;BME280;61141;46.204;19.774;2023-05-15T15:04:21;99848.50;;;16.03;100.00
72961;BME280;61141;46.204;19.774;2023-05-15T15:07:28;99853.31;;;15.99;100.00
72961;BME280;61141;46.204;19.774;2023-05-15T15:10:33;99855.34;;;15.95;100.00
72961;BME280;61141;46.204;19.774;2023-05-15T15:13:36;99859.41;;;15.86;100.00
72961;BME280;61141;46.204;19.774;2023-05-15T15:16:39;99867.28;;;15.88;100.00
72961;BME280;61141;46.204;19.774;2023-05-15T15:19:42;99867.75;;;15.83;100.00
72961;BME280;61141;46.204;19.774;2023-05-15T15:22:46;99858.09;;;15.68;100.00
72961;BME280;61141;46.204;19.774;2023-05-15T15:25:49;99867.62;;;15.63;100.00
72961;BME280;61141;46.204;19.774;2023-05-15T15:28:52;99875.91;;;15.63;100.00
72961;BME280;61141;46.204;19.774;2023-05-15T15:31:56;99875.53;;;15.61;100.00
72961;BME280;61141;46.204;19.774;2023-05-15T15:34:59;99877.19;;;15.55;100.00
72961;BME280;61141;46.204;19.774;2023-05-15T15:38:02;99867.03;;;15.49;100.00
72961;BME280;61141;46.204;19.774;2023-05-15T15:41:05;99885.13;;;15.53;100.00
72961;BME280;61141;46.204;19.774;2023-05-15T15:44:08;99881.50;;;15.60;100.00
72961;BME280;61141;46.204;19.774;2023-05-15T15:47:15;99891.75;;;15.59;100.00
72961;BME280;61141;46.204;19.774;2023-05-15T15:50:22;99900.38;;;15.61;100.00
72961;BME280;61141;46.204;19.774;2023-05-15T15:53:25;99895.69;;;15.58;100.00
72961;BME280;61141;46.204;19.774;2023-05-15T15:56:28;99896.16;;;15.53;100.00
72961;BME280;61141;46.204;19.774;2023-05-15T15:59:31;99894.31;;;15.40;100.00
72961;BME280;61141;46.204;19.774;2023-05-15T16:02:34;99894.75;;;15.38;100.00
72961;BME280;61141;46.204;19.774;2023-05-15T16:05:37;99872.19;;;15.13;100.00
72961;BME280;61141;46.204;19.774;2023-05-15T16:08:40;99895.16;;;15.37;100.00
72961;BME280;61141;46.204;19.774;2023-05-15T16:11:43;99895.28;;;15.26;100.00
72961;BME280;61141;46.204;19.774;2023-05-15T16:14:45;99889.44;;;15.17;100.00
72961;BME280;61141;46.204;19.774;2023-05-15T16:17:51;99903.63;;;15.19;100.00